sensor_id;sensor_type;location;lat;lon;timestamp;temperature;humidity
20233;DHT22;37438;55.674;13.074;2023-02-15T00:00:48;3.30;99.90
20233;DHT22;37438;55.674;13.074;2023-02-15T00:03:53;3.30;99.90
20233;DHT22;37438;55.674;13.074;2023-02-15T00:06:57;3.30;99.90
20233;DHT22;37438;55.674;13.074;2023-02-15T00:10:02;3.30;99.90
20233;DHT22;37438;55.674;13.074;2023-02-15T00:13:06;3.30;99.90
20233;DHT22;37438;55.674;13.074;2023-02-15T00:16:12;3.30;99.90
20233;DHT22;37438;55.674;13.074;2023-02-15T00:19:18;3.30;99.90
20233;DHT22;37438;55.674;13.074;2023-02-15T00:22:23;3.30;99.90
20233;DHT22;37438;55.674;13.074;2023-02-15T00:25:27;3.30;99.90
20233;DHT22;37438;55.674;13.074;2023-02-15T00:28:32;3.20;99.90
20233;DHT22;37438;55.674;13.074;2023-02-15T00:31:37;3.20;99.90
20233;DHT22;37438;55.674;13.074;2023-02-15T00:34:41;3.20;99.90
20233;DHT22;37438;55.674;13.074;2023-02-15T00:37:46;3.30;99.90
20233;DHT22;37438;55.674;13.074;2023-02-15T00:40:54;3.30;99.90
20233;DHT22;37438;55.674;13.074;2023-02-15T00:43:59;3.30;99.90
20233;DHT22;37438;55.674;13.074;2023-02-15T00:47:06;3.30;99.90
20233;DHT22;37438;55.674;13.074;2023-02-15T00:50:11;3.30;99.90
20233;DHT22;37438;55.674;13.074;2023-02-15T00:53:15;3.30;99.90
20233;DHT22;37438;55.674;13.074;2023-02-15T00:56:20;3.30;99.90
20233;DHT22;37438;55.674;13.074;2023-02-15T00:59:24;3.30;99.90
20233;DHT22;37438;55.674;13.074;2023-02-15T01:02:29;3.30;99.90
20233;DHT22;37438;55.674;13.074;2023-02-15T01:05:33;3.30;99.90
20233;DHT22;37438;55.674;13.074;2023-02-15T01:08:38;3.30;99.90
20233;DHT22;37438;55.674;13.074;2023-02-15T01:11:44;3.30;99.90
20233;DHT22;37438;55.674;13.074;2023-02-15T01:14:49;3.30;99.90
20233;DHT22;37438;55.674;13.074;2023-02-15T01:17:53;3.30;99.90
20233;DHT22;37438;55.674;13.074;2023-02-15T01:20:58;3.40;99.90
20233;DHT22;37438;55.674;13.074;2023-02-15T01:24:03;3.40;99.90
20233;DHT22;37438;55.674;13.074;2023-02-15T01:27:07;3.40;99.90
20233;DHT22;37438;55.674;13.074;2023-02-15T01:30:12;3.40;99.90
20233;DHT22;37438;55.674;13.074;2023-02-15T01:33:17;3.30;99.90
20233;DHT22;37438;55.674;13.074;2023-02-15T01:36:22;3.40;99.90
20233;DHT22;37438;55.674;13.074;2023-02-15T01:39:28;3.40;99.90
20233;DHT22;37438;55.674;13.074;2023-02-15T01:42:33;3.40;99.90
20233;DHT22;37438;55.674;13.074;2023-02-15T01:45:38;3.40;99.90
20233;DHT22;37438;55.674;13.074;2023-02-15T01:48:48;3.40;99.90
20233;DHT22;37438;55.674;13.074;2023-02-15T01:51:55;3.40;99.90
20233;DHT22;37438;55.674;13.074;2023-02-15T01:55:01;3.40;99.90
20233;DHT22;37438;55.674;13.074;2023-02-15T01:58:07;3.40;99.90
20233;DHT22;37438;55.674;13.074;2023-02-15T02:01:11;3.50;99.90
20233;DHT22;37438;55.674;13.074;2023-02-15T02:04:29;3.40;99.90
20233;DHT22;37438;55.674;13.074;2023-02-15T02:07:39;3.50;99.90
20233;DHT22;37438;55.674;13.074;2023-02-15T02:10:45;3.50;99.90
20233;DHT22;37438;55.674;13.074;2023-02-15T02:13:51;3.50;99.90
20233;DHT22;37438;55.674;13.074;2023-02-15T02:17:16;3.50;99.90
20233;DHT22;37438;55.674;13.074;2023-02-15T02:21:10;3.50;99.90
20233;DHT22;37438;55.674;13.074;2023-02-15T02:27:44;3.40;99.90
20233;DHT22;37438;55.674;13.074;2023-02-15T02:34:25;3.50;99.90
20233;DHT22;37438;55.674;13.074;2023-02-15T02:44:47;3.60;99.90
20233;DHT22;37438;55.674;13.074;2023-02-15T02:48:13;3.60;99.90
20233;DHT22;37438;55.674;13.074;2023-02-15T02:51:19;3.50;99.90
20233;DHT22;37438;55.674;13.074;2023-02-15T02:54:27;3.50;99.90
20233;DHT22;37438;55.674;13.074;2023-02-15T02:57:32;3.60;99.90
20233;DHT22;37438;55.674;13.074;2023-02-15T03:00:45;3.60;99.90
20233;DHT22;37438;55.674;13.074;2023-02-15T03:04:01;3.60;99.90
20233;DHT22;37438;55.674;13.074;2023-02-15T03:07:09;3.70;99.90
20233;DHT22;37438;55.674;13.074;2023-02-15T03:10:21;3.60;99.90
20233;DHT22;37438;55.674;13.074;2023-02-15T03:13:27;3.70;99.90
20233;DHT22;37438;55.674;13.074;2023-02-15T03:16:33;3.70;99.90
20233;DHT22;37438;55.674;13.074;2023-02-15T03:19:37;3.70;99.90
20233;DHT22;37438;55.674;13.074;2023-02-15T03:22:50;3.80;99.90
20233;DHT22;37438;55.674;13.074;2023-02-15T03:26:01;3.80;99.90
20233;DHT22;37438;55.674;13.074;2023-02-15T03:29:10;3.80;99.90
20233;DHT22;37438;55.674;13.074;2023-02-15T03:32:15;3.80;99.90
20233;DHT22;37438;55.674;13.074;2023-02-15T03:35:23;3.90;99.90
20233;DHT22;37438;55.674;13.074;2023-02-15T03:38:55;3.90;99.90
20233;DHT22;37438;55.674;13.074;2023-02-15T03:45:08;4.00;99.90
20233;DHT22;37438;55.674;13.074;2023-02-15T03:48:16;4.00;99.90
20233;DHT22;37438;55.674;13.074;2023-02-15T03:51:28;4.10;99.90
20233;DHT22;37438;55.674;13.074;2023-02-15T03:54:41;4.00;99.90
20233;DHT22;37438;55.674;13.074;2023-02-15T03:57:48;4.00;99.90
20233;DHT22;37438;55.674;13.074;2023-02-15T04:01:38;4.10;99.90
20233;DHT22;37438;55.674;13.074;2023-02-15T04:05:01;4.10;99.90
20233;DHT22;37438;55.674;13.074;2023-02-15T04:08:06;4.10;99.90
20233;DHT22;37438;55.674;13.074;2023-02-15T04:11:10;4.10;99.90
20233;DHT22;37438;55.674;13.074;2023-02-15T04:14:14;4.10;99.90
20233;DHT22;37438;55.674;13.074;2023-02-15T04:17:38;4.10;99.90
20233;DHT22;37438;55.674;13.074;2023-02-15T04:20:46;4.10;99.90
20233;DHT22;37438;55.674;13.074;2023-02-15T04:24:09;4.10;99.90
20233;DHT22;37438;55.674;13.074;2023-02-15T04:27:32;4.10;99.90
20233;DHT22;37438;55.674;13.074;2023-02-15T04:30:37;4.20;99.90
20233;DHT22;37438;55.674;13.074;2023-02-15T04:33:41;4.10;99.90
20233;DHT22;37438;55.674;13.074;2023-02-15T04:36:47;4.20;99.90
20233;DHT22;37438;55.674;13.074;2023-02-15T04:39:52;4.20;99.90
20233;DHT22;37438;55.674;13.074;2023-02-15T04:42:56;4.20;99.90
20233;DHT22;37438;55.674;13.074;2023-02-15T04:46:01;4.20;99.90
20233;DHT22;37438;55.674;13.074;2023-02-15T04:49:08;4.30;99.90
20233;DHT22;37438;55.674;13.074;2023-02-15T04:52:13;4.30;99.90
20233;DHT22;37438;55.674;13.074;2023-02-15T04:55:17;4.20;99.90
20233;DHT22;37438;55.674;13.074;2023-02-15T04:58:21;4.20;99.90
20233;DHT22;37438;55.674;13.074;2023-02-15T05:01:26;4.30;99.90
20233;DHT22;37438;55.674;13.074;2023-02-15T05:04:31;4.20;99.90
20233;DHT22;37438;55.674;13.074;2023-02-15T05:07:35;4.20;99.90
20233;DHT22;37438;55.674;13.074;2023-02-15T05:10:40;4.30;99.90
20233;DHT22;37438;55.674;13.074;2023-02-15T05:13:44;4.30;99.90
20233;DHT22;37438;55.674;13.074;2023-02-15T05:16:49;4.30;99.90
20233;DHT22;37438;55.674;13.074;2023-02-15T05:19:53;4.20;99.90
20233;DHT22;37438;55.674;13.074;2023-02-15T05:22:57;4.30;99.90
20233;DHT22;37438;55.674;13.074;2023-02-15T05:26:02;4.30;99.90
20233;DHT22;37438;55.674;13.074;2023-02-15T05:29:25;4.30;99.90
20233;DHT22;37438;55.674;13.074;2023-02-15T05:32:30;4.30;99.90
20233;DHT22;37438;55.674;13.074;2023-02-15T05:35:35;4.30;99.90
20233;DHT22;37438;55.674;13.074;2023-02-15T05:38:40;4.30;99.90
20233;DHT22;37438;55.674;13.074;2023-02-15T05:41:44;4.30;99.90
20233;DHT22;37438;55.674;13.074;2023-02-15T05:44:49;4.30;99.90
20233;DHT22;37438;55.674;13.074;2023-02-15T05:47:53;4.30;99.90
20233;DHT22;37438;55.674;13.074;2023-02-15T05:51:10;4.30;99.90
20233;DHT22;37438;55.674;13.074;2023-02-15T05:54:17;4.30;99.90
20233;DHT22;37438;55.674;13.074;2023-02-15T05:57:21;4.30;99.90
20233;DHT22;37438;55.674;13.074;2023-02-15T06:00:26;4.30;99.90
20233;DHT22;37438;55.674;13.074;2023-02-15T06:03:30;4.40;99.90
20233;DHT22;37438;55.674;13.074;2023-02-15T06:06:35;4.40;99.90
20233;DHT22;37438;55.674;13.074;2023-02-15T06:09:40;4.40;99.90
20233;DHT22;37438;55.674;13.074;2023-02-15T06:12:44;4.40;99.90
20233;DHT22;37438;55.674;13.074;2023-02-15T06:15:49;4.40;99.90
20233;DHT22;37438;55.674;13.074;2023-02-15T06:18:53;4.40;99.90
20233;DHT22;37438;55.674;13.074;2023-02-15T06:21:58;4.40;99.90
20233;DHT22;37438;55.674;13.074;2023-02-15T06:25:02;4.40;99.90
20233;DHT22;37438;55.674;13.074;2023-02-15T06:28:07;4.50;99.90
20233;DHT22;37438;55.674;13.074;2023-02-15T06:31:12;4.40;99.90
20233;DHT22;37438;55.674;13.074;2023-02-15T06:34:16;4.40;99.90
20233;DHT22;37438;55.674;13.074;2023-02-15T06:37:20;4.50;99.90
20233;DHT22;37438;55.674;13.074;2023-02-15T06:40:25;4.40;99.90
20233;DHT22;37438;55.674;13.074;2023-02-15T06:43:29;4.40;99.90
20233;DHT22;37438;55.674;13.074;2023-02-15T06:46:33;4.50;99.90
20233;DHT22;37438;55.674;13.074;2023-02-15T06:49:38;4.50;99.90
20233;DHT22;37438;55.674;13.074;2023-02-15T06:52:42;4.50;99.90
20233;DHT22;37438;55.674;13.074;2023-02-15T06:55:47;4.50;99.90
20233;DHT22;37438;55.674;13.074;2023-02-15T06:58:51;4.50;99.90
20233;DHT22;37438;55.674;13.074;2023-02-15T07:01:57;4.60;99.90
20233;DHT22;37438;55.674;13.074;2023-02-15T07:05:01;4.50;99.90
20233;DHT22;37438;55.674;13.074;2023-02-15T07:08:06;4.60;99.90
20233;DHT22;37438;55.674;13.074;2023-02-15T07:11:11;4.70;99.90
20233;DHT22;37438;55.674;13.074;2023-02-15T07:14:34;4.60;99.90
20233;DHT22;37438;55.674;13.074;2023-02-15T07:17:39;4.60;99.90
20233;DHT22;37438;55.674;13.074;2023-02-15T07:20:43;4.60;99.90
20233;DHT22;37438;55.674;13.074;2023-02-15T07:23:48;4.60;99.90
20233;DHT22;37438;55.674;13.074;2023-02-15T07:26:52;4.60;99.90
20233;DHT22;37438;55.674;13.074;2023-02-15T07:29:57;4.60;99.90
20233;DHT22;37438;55.674;13.074;2023-02-15T07:33:02;4.70;99.90
20233;DHT22;37438;55.674;13.074;2023-02-15T07:36:25;4.70;99.90
20233;DHT22;37438;55.674;13.074;2023-02-15T07:39:29;4.70;99.90
20233;DHT22;37438;55.674;13.074;2023-02-15T07:42:33;4.60;99.90
20233;DHT22;37438;55.674;13.074;2023-02-15T07:45:38;4.70;99.90
20233;DHT22;37438;55.674;13.074;2023-02-15T07:48:43;4.70;99.90
20233;DHT22;37438;55.674;13.074;2023-02-15T07:51:47;4.80;99.90
20233;DHT22;37438;55.674;13.074;2023-02-15T07:54:52;4.70;99.90
20233;DHT22;37438;55.674;13.074;2023-02-15T07:57:56;4.80;99.90
20233;DHT22;37438;55.674;13.074;2023-02-15T08:01:00;4.70;99.90
20233;DHT22;37438;55.674;13.074;2023-02-15T08:04:08;4.80;99.90
20233;DHT22;37438;55.674;13.074;2023-02-15T08:07:15;4.80;99.90
20233;DHT22;37438;55.674;13.074;2023-02-15T08:10:19;4.80;99.90
20233;DHT22;37438;55.674;13.074;2023-02-15T08:13:45;4.90;99.90
20233;DHT22;37438;55.674;13.074;2023-02-15T08:16:59;4.90;99.90
20233;DHT22;37438;55.674;13.074;2023-02-15T08:20:07;4.80;99.90
20233;DHT22;37438;55.674;13.074;2023-02-15T08:23:13;4.90;99.90
20233;DHT22;37438;55.674;13.074;2023-02-15T08:26:17;5.00;99.90
20233;DHT22;37438;55.674;13.074;2023-02-15T08:29:24;4.90;99.90
20233;DHT22;37438;55.674;13.074;2023-02-15T08:32:28;5.00;99.90
20233;DHT22;37438;55.674;13.074;2023-02-15T08:35:33;5.10;99.90
20233;DHT22;37438;55.674;13.074;2023-02-15T08:38:38;5.00;99.90
20233;DHT22;37438;55.674;13.074;2023-02-15T08:41:45;5.00;99.90
20233;DHT22;37438;55.674;13.074;2023-02-15T08:44:50;5.10;99.90
20233;DHT22;37438;55.674;13.074;2023-02-15T08:47:55;5.00;99.90
20233;DHT22;37438;55.674;13.074;2023-02-15T08:51:08;5.20;99.90
20233;DHT22;37438;55.674;13.074;2023-02-15T08:54:17;5.20;99.90
20233;DHT22;37438;55.674;13.074;2023-02-15T08:57:22;5.20;99.90
20233;DHT22;37438;55.674;13.074;2023-02-15T09:00:26;5.20;99.90
20233;DHT22;37438;55.674;13.074;2023-02-15T09:03:30;5.20;99.90
20233;DHT22;37438;55.674;13.074;2023-02-15T09:06:36;5.30;99.90
20233;DHT22;37438;55.674;13.074;2023-02-15T09:09:41;5.30;99.90
20233;DHT22;37438;55.674;13.074;2023-02-15T09:12:46;5.40;99.90
20233;DHT22;37438;55.674;13.074;2023-02-15T09:15:50;5.30;99.90
20233;DHT22;37438;55.674;13.074;2023-02-15T09:18:54;5.30;99.90
20233;DHT22;37438;55.674;13.074;2023-02-15T09:22:01;5.30;99.90
20233;DHT22;37438;55.674;13.074;2023-02-15T09:25:06;5.40;99.90
20233;DHT22;37438;55.674;13.074;2023-02-15T09:28:10;5.40;99.90
20233;DHT22;37438;55.674;13.074;2023-02-15T09:31:16;5.50;99.90
20233;DHT22;37438;55.674;13.074;2023-02-15T09:34:21;5.50;99.90
20233;DHT22;37438;55.674;13.074;2023-02-15T09:37:26;5.40;99.90
20233;DHT22;37438;55.674;13.074;2023-02-15T09:40:33;5.40;99.90
20233;DHT22;37438;55.674;13.074;2023-02-15T09:57:31;5.50;99.90
20233;DHT22;37438;55.674;13.074;2023-02-15T10:00:43;5.40;99.90
20233;DHT22;37438;55.674;13.074;2023-02-15T10:21:19;5.40;99.90
20233;DHT22;37438;55.674;13.074;2023-02-15T10:27:49;5.40;99.90
20233;DHT22;37438;55.674;13.074;2023-02-15T10:34:39;5.30;99.90
20233;DHT22;37438;55.674;13.074;2023-02-15T10:37:59;5.40;99.90
20233;DHT22;37438;55.674;13.074;2023-02-15T11:01:44;5.60;99.90
20233;DHT22;37438;55.674;13.074;2023-02-15T11:08:18;5.70;99.90
20233;DHT22;37438;55.674;13.074;2023-02-15T11:11:29;5.80;99.90
20233;DHT22;37438;55.674;13.074;2023-02-15T11:21:34;6.50;99.90
20233;DHT22;37438;55.674;13.074;2023-02-15T11:24:44;6.70;99.90
20233;DHT22;37438;55.674;13.074;2023-02-15T11:27:49;6.50;99.90
20233;DHT22;37438;55.674;13.074;2023-02-15T11:30:55;6.50;99.90
20233;DHT22;37438;55.674;13.074;2023-02-15T11:34:06;6.40;99.90
20233;DHT22;37438;55.674;13.074;2023-02-15T11:37:19;6.30;99.90
20233;DHT22;37438;55.674;13.074;2023-02-15T11:46:42;6.40;99.90
20233;DHT22;37438;55.674;13.074;2023-02-15T11:49:47;6.00;99.90
20233;DHT22;37438;55.674;13.074;2023-02-15T11:52:53;6.10;99.90
20233;DHT22;37438;55.674;13.074;2023-02-15T11:56:01;6.10;99.90
20233;DHT22;37438;55.674;13.074;2023-02-15T11:59:17;6.00;99.90
20233;DHT22;37438;55.674;13.074;2023-02-15T12:02:23;5.80;99.90
20233;DHT22;37438;55.674;13.074;2023-02-15T12:05:30;5.80;99.90
20233;DHT22;37438;55.674;13.074;2023-02-15T12:08:42;6.00;99.90
20233;DHT22;37438;55.674;13.074;2023-02-15T12:11:47;6.10;99.90
20233;DHT22;37438;55.674;13.074;2023-02-15T12:15:00;6.30;99.90
20233;DHT22;37438;55.674;13.074;2023-02-15T12:18:05;6.00;99.90
20233;DHT22;37438;55.674;13.074;2023-02-15T12:21:34;6.10;99.90
20233;DHT22;37438;55.674;13.074;2023-02-15T12:24:47;5.80;99.90
20233;DHT22;37438;55.674;13.074;2023-02-15T12:27:52;6.00;99.90
20233;DHT22;37438;55.674;13.074;2023-02-15T12:30:57;6.00;99.90
20233;DHT22;37438;55.674;13.074;2023-02-15T12:34:08;6.10;99.90
20233;DHT22;37438;55.674;13.074;2023-02-15T12:37:21;6.10;99.90
20233;DHT22;37438;55.674;13.074;2023-02-15T12:40:28;6.00;99.90
20233;DHT22;37438;55.674;13.074;2023-02-15T12:43:38;5.90;99.90
20233;DHT22;37438;55.674;13.074;2023-02-15T12:46:42;5.80;99.90
20233;DHT22;37438;55.674;13.074;2023-02-15T12:50:23;5.90;99.90
20233;DHT22;37438;55.674;13.074;2023-02-15T12:53:32;5.90;99.90
20233;DHT22;37438;55.674;13.074;2023-02-15T12:56:37;6.00;99.90
20233;DHT22;37438;55.674;13.074;2023-02-15T13:03:00;5.80;99.90
20233;DHT22;37438;55.674;13.074;2023-02-15T13:06:06;5.80;99.90
20233;DHT22;37438;55.674;13.074;2023-02-15T13:09:17;5.80;99.90
20233;DHT22;37438;55.674;13.074;2023-02-15T13:12:25;5.90;99.90
20233;DHT22;37438;55.674;13.074;2023-02-15T13:15:38;5.90;99.90
20233;DHT22;37438;55.674;13.074;2023-02-15T13:18:45;5.80;99.90
20233;DHT22;37438;55.674;13.074;2023-02-15T13:21:52;5.80;99.90
20233;DHT22;37438;55.674;13.074;2023-02-15T13:25:01;5.90;99.90
20233;DHT22;37438;55.674;13.074;2023-02-15T13:28:12;5.70;99.90
20233;DHT22;37438;55.674;13.074;2023-02-15T13:31:20;5.70;99.90
20233;DHT22;37438;55.674;13.074;2023-02-15T13:34:36;5.60;99.90
20233;DHT22;37438;55.674;13.074;2023-02-15T13:41:30;5.60;99.90
20233;DHT22;37438;55.674;13.074;2023-02-15T13:48:13;5.80;99.90
20233;DHT22;37438;55.674;13.074;2023-02-15T13:51:38;5.70;99.90
20233;DHT22;37438;55.674;13.074;2023-02-15T13:55:19;5.60;99.90
20233;DHT22;37438;55.674;13.074;2023-02-15T14:08:50;5.50;99.90
20233;DHT22;37438;55.674;13.074;2023-02-15T14:12:24;5.50;99.90
20233;DHT22;37438;55.674;13.074;2023-02-15T14:15:46;5.50;99.90
20233;DHT22;37438;55.674;13.074;2023-02-15T14:22:39;5.20;99.90
20233;DHT22;37438;55.674;13.074;2023-02-15T14:25:51;5.30;99.90
20233;DHT22;37438;55.674;13.074;2023-02-15T14:29:08;5.30;99.90
20233;DHT22;37438;55.674;13.074;2023-02-15T14:32:28;5.20;99.90
20233;DHT22;37438;55.674;13.074;2023-02-15T14:35:36;5.30;99.90
20233;DHT22;37438;55.674;13.074;2023-02-15T14:38:59;5.20;99.90
20233;DHT22;37438;55.674;13.074;2023-02-15T14:42:27;5.30;99.90
20233;DHT22;37438;55.674;13.074;2023-02-15T14:48:51;5.10;99.90
20233;DHT22;37438;55.674;13.074;2023-02-15T14:52:00;5.10;99.90
20233;DHT22;37438;55.674;13.074;2023-02-15T14:55:06;5.10;99.90
20233;DHT22;37438;55.674;13.074;2023-02-15T14:58:12;5.00;99.90
20233;DHT22;37438;55.674;13.074;2023-02-15T15:01:28;4.90;99.90
20233;DHT22;37438;55.674;13.074;2023-02-15T15:04:43;4.90;99.90
20233;DHT22;37438;55.674;13.074;2023-02-15T15:07:54;4.90;99.90
20233;DHT22;37438;55.674;13.074;2023-02-15T15:14:47;4.70;99.90
20233;DHT22;37438;55.674;13.074;2023-02-15T15:18:07;4.80;99.90
20233;DHT22;37438;55.674;13.074;2023-02-15T15:31:52;4.60;99.90
20233;DHT22;37438;55.674;13.074;2023-02-15T15:35:12;4.50;99.90
20233;DHT22;37438;55.674;13.074;2023-02-15T15:38:54;4.60;99.90
20233;DHT22;37438;55.674;13.074;2023-02-15T15:42:34;4.50;99.90
20233;DHT22;37438;55.674;13.074;2023-02-15T15:45:56;4.50;99.90
20233;DHT22;37438;55.674;13.074;2023-02-15T15:49:16;4.40;99.90
20233;DHT22;37438;55.674;13.074;2023-02-15T15:52:22;4.30;99.90
20233;DHT22;37438;55.674;13.074;2023-02-15T15:55:29;4.20;99.90
20233;DHT22;37438;55.674;13.074;2023-02-15T15:58:34;4.20;99.90
20233;DHT22;37438;55.674;13.074;2023-02-15T16:01:42;4.10;99.90
20233;DHT22;37438;55.674;13.074;2023-02-15T16:04:47;4.00;99.90
20233;DHT22;37438;55.674;13.074;2023-02-15T16:07:51;4.00;99.90
20233;DHT22;37438;55.674;13.074;2023-02-15T16:10:56;4.00;99.90
20233;DHT22;37438;55.674;13.074;2023-02-15T16:14:01;4.10;99.90
20233;DHT22;37438;55.674;13.074;2023-02-15T16:17:12;4.00;99.90
20233;DHT22;37438;55.674;13.074;2023-02-15T16:20:30;4.00;99.90
20233;DHT22;37438;55.674;13.074;2023-02-15T16:33:35;3.80;99.90
20233;DHT22;37438;55.674;13.074;2023-02-15T16:36:40;3.80;99.90
20233;DHT22;37438;55.674;13.074;2023-02-15T16:39:46;3.80;99.90
20233;DHT22;37438;55.674;13.074;2023-02-15T16:43:03;3.70;99.90
20233;DHT22;37438;55.674;13.074;2023-02-15T16:46:25;3.60;99.90
20233;DHT22;37438;55.674;13.074;2023-02-15T16:49:33;3.60;99.90
20233;DHT22;37438;55.674;13.074;2023-02-15T16:52:38;3.60;99.90
20233;DHT22;37438;55.674;13.074;2023-02-15T16:55:59;3.40;99.90
20233;DHT22;37438;55.674;13.074;2023-02-15T16:59:05;3.60;99.90
20233;DHT22;37438;55.674;13.074;2023-02-15T17:02:15;3.50;99.90
20233;DHT22;37438;55.674;13.074;2023-02-15T17:05:44;3.60;99.90
20233;DHT22;37438;55.674;13.074;2023-02-15T17:08:49;3.60;99.90
20233;DHT22;37438;55.674;13.074;2023-02-15T17:11:53;3.40;99.90
20233;DHT22;37438;55.674;13.074;2023-02-15T17:14:58;3.50;99.90
20233;DHT22;37438;55.674;13.074;2023-02-15T17:21:20;3.50;99.90
20233;DHT22;37438;55.674;13.074;2023-02-15T17:24:35;3.50;99.90
20233;DHT22;37438;55.674;13.074;2023-02-15T17:27:40;3.50;99.90
20233;DHT22;37438;55.674;13.074;2023-02-15T17:30:45;3.50;99.90
20233;DHT22;37438;55.674;13.074;2023-02-15T17:33:50;3.60;99.90
20233;DHT22;37438;55.674;13.074;2023-02-15T17:36:58;3.50;99.90
20233;DHT22;37438;55.674;13.074;2023-02-15T17:43:23;3.50;99.90
20233;DHT22;37438;55.674;13.074;2023-02-15T17:46:33;3.40;99.90
20233;DHT22;37438;55.674;13.074;2023-02-15T17:49:38;3.50;99.90
20233;DHT22;37438;55.674;13.074;2023-02-15T17:52:42;3.50;99.90
20233;DHT22;37438;55.674;13.074;2023-02-15T17:55:47;3.60;99.90
20233;DHT22;37438;55.674;13.074;2023-02-15T17:58:51;3.50;99.90
20233;DHT22;37438;55.674;13.074;2023-02-15T18:01:56;3.60;99.90
20233;DHT22;37438;55.674;13.074;2023-02-15T18:05:19;3.60;99.90
20233;DHT22;37438;55.674;13.074;2023-02-15T18:08:43;3.60;99.90
20233;DHT22;37438;55.674;13.074;2023-02-15T18:12:23;3.60;99.90
20233;DHT22;37438;55.674;13.074;2023-02-15T18:15:28;3.60;99.90
20233;DHT22;37438;55.674;13.074;2023-02-15T18:18:33;3.50;99.90
20233;DHT22;37438;55.674;13.074;2023-02-15T18:21:37;3.50;99.90
20233;DHT22;37438;55.674;13.074;2023-02-15T18:24:42;3.60;99.90
20233;DHT22;37438;55.674;13.074;2023-02-15T18:27:47;3.50;99.90
20233;DHT22;37438;55.674;13.074;2023-02-15T18:30:51;3.60;99.90
20233;DHT22;37438;55.674;13.074;2023-02-15T18:33:58;3.70;99.90
20233;DHT22;37438;55.674;13.074;2023-02-15T18:37:05;3.70;99.90
20233;DHT22;37438;55.674;13.074;2023-02-15T18:40:19;3.60;99.90
20233;DHT22;37438;55.674;13.074;2023-02-15T18:43:24;3.60;99.90
20233;DHT22;37438;55.674;13.074;2023-02-15T18:46:29;3.70;99.90
20233;DHT22;37438;55.674;13.074;2023-02-15T18:49:33;3.70;99.90
20233;DHT22;37438;55.674;13.074;2023-02-15T18:52:38;3.80;99.90
20233;DHT22;37438;55.674;13.074;2023-02-15T18:55:43;3.70;99.90
20233;DHT22;37438;55.674;13.074;2023-02-15T18:58:47;3.70;99.90
20233;DHT22;37438;55.674;13.074;2023-02-15T19:01:52;3.80;99.90
20233;DHT22;37438;55.674;13.074;2023-02-15T19:04:57;3.80;99.90
20233;DHT22;37438;55.674;13.074;2023-02-15T19:08:02;3.80;99.90
20233;DHT22;37438;55.674;13.074;2023-02-15T19:11:12;3.90;99.90
20233;DHT22;37438;55.674;13.074;2023-02-15T19:14:30;4.00;99.90
20233;DHT22;37438;55.674;13.074;2023-02-15T19:17:34;4.00;99.90
20233;DHT22;37438;55.674;13.074;2023-02-15T19:20:41;3.80;99.90
20233;DHT22;37438;55.674;13.074;2023-02-15T19:23:58;4.00;99.90
20233;DHT22;37438;55.674;13.074;2023-02-15T19:27:06;3.80;99.90
20233;DHT22;37438;55.674;13.074;2023-02-15T19:30:22;3.80;99.90
20233;DHT22;37438;55.674;13.074;2023-02-15T19:33:28;3.90;99.90
20233;DHT22;37438;55.674;13.074;2023-02-15T19:36:33;3.80;99.90
20233;DHT22;37438;55.674;13.074;2023-02-15T19:39:38;4.00;99.90
20233;DHT22;37438;55.674;13.074;2023-02-15T19:42:43;4.10;99.90
20233;DHT22;37438;55.674;13.074;2023-02-15T19:45:48;4.00;99.90
20233;DHT22;37438;55.674;13.074;2023-02-15T19:48:55;4.10;99.90
20233;DHT22;37438;55.674;13.074;2023-02-15T19:52:00;4.20;99.90
20233;DHT22;37438;55.674;13.074;2023-02-15T19:55:05;4.00;99.90
20233;DHT22;37438;55.674;13.074;2023-02-15T19:58:11;4.10;99.90
20233;DHT22;37438;55.674;13.074;2023-02-15T20:01:17;4.20;99.90
20233;DHT22;37438;55.674;13.074;2023-02-15T20:04:23;4.30;99.90
20233;DHT22;37438;55.674;13.074;2023-02-15T20:07:28;4.20;99.90
20233;DHT22;37438;55.674;13.074;2023-02-15T20:10:34;4.20;99.90
20233;DHT22;37438;55.674;13.074;2023-02-15T20:13:39;4.30;99.90
20233;DHT22;37438;55.674;13.074;2023-02-15T20:16:43;4.30;99.90
20233;DHT22;37438;55.674;13.074;2023-02-15T20:19:48;4.30;99.90
20233;DHT22;37438;55.674;13.074;2023-02-15T20:22:52;4.20;99.90
20233;DHT22;37438;55.674;13.074;2023-02-15T20:25:58;4.30;99.90
20233;DHT22;37438;55.674;13.074;2023-02-15T20:29:03;4.40;99.90
20233;DHT22;37438;55.674;13.074;2023-02-15T20:32:11;4.40;99.90
20233;DHT22;37438;55.674;13.074;2023-02-15T20:35:18;4.50;99.90
20233;DHT22;37438;55.674;13.074;2023-02-15T20:38:25;4.50;99.90
20233;DHT22;37438;55.674;13.074;2023-02-15T20:41:31;4.50;99.90
20233;DHT22;37438;55.674;13.074;2023-02-15T20:44:39;4.50;99.90
20233;DHT22;37438;55.674;13.074;2023-02-15T20:47:44;4.50;99.90
20233;DHT22;37438;55.674;13.074;2023-02-15T20:50:51;4.60;99.90
20233;DHT22;37438;55.674;13.074;2023-02-15T20:53:56;4.60;99.90
20233;DHT22;37438;55.674;13.074;2023-02-15T20:57:01;4.50;99.90
20233;DHT22;37438;55.674;13.074;2023-02-15T21:00:14;4.60;99.90
20233;DHT22;37438;55.674;13.074;2023-02-15T21:03:21;4.60;99.90
20233;DHT22;37438;55.674;13.074;2023-02-15T21:06:25;4.60;99.90
20233;DHT22;37438;55.674;13.074;2023-02-15T21:09:30;4.70;99.90
20233;DHT22;37438;55.674;13.074;2023-02-15T21:12:34;4.70;99.90
20233;DHT22;37438;55.674;13.074;2023-02-15T21:15:39;4.70;99.90
20233;DHT22;37438;55.674;13.074;2023-02-15T21:18:44;4.60;99.90
20233;DHT22;37438;55.674;13.074;2023-02-15T21:21:51;4.70;99.90
20233;DHT22;37438;55.674;13.074;2023-02-15T21:24:56;4.60;99.90
20233;DHT22;37438;55.674;13.074;2023-02-15T21:28:00;4.60;99.90
20233;DHT22;37438;55.674;13.074;2023-02-15T21:31:08;4.60;99.90
20233;DHT22;37438;55.674;13.074;2023-02-15T21:34:18;4.60;99.90
20233;DHT22;37438;55.674;13.074;2023-02-15T21:37:31;4.60;99.90
20233;DHT22;37438;55.674;13.074;2023-02-15T21:40:36;4.70;99.90
20233;DHT22;37438;55.674;13.074;2023-02-15T21:43:40;4.50;99.90
20233;DHT22;37438;55.674;13.074;2023-02-15T21:47:03;4.50;99.90
20233;DHT22;37438;55.674;13.074;2023-02-15T21:50:26;4.60;99.90
20233;DHT22;37438;55.674;13.074;2023-02-15T21:53:49;4.40;99.90
20233;DHT22;37438;55.674;13.074;2023-02-15T21:56:53;4.30;99.90
20233;DHT22;37438;55.674;13.074;2023-02-15T21:59:58;4.30;99.90
20233;DHT22;37438;55.674;13.074;2023-02-15T22:03:04;4.30;99.90
20233;DHT22;37438;55.674;13.074;2023-02-15T22:06:11;4.30;99.90
20233;DHT22;37438;55.674;13.074;2023-02-15T22:09:21;4.30;99.90
20233;DHT22;37438;55.674;13.074;2023-02-15T22:12:25;4.30;99.90
20233;DHT22;37438;55.674;13.074;2023-02-15T22:15:35;4.40;99.90
20233;DHT22;37438;55.674;13.074;2023-02-15T22:18:40;4.50;99.90
20233;DHT22;37438;55.674;13.074;2023-02-15T22:21:44;4.30;99.90